createdAt,value
2018-09-24T00:01:09.518Z,9.40
2018-09-24T00:03:36.652Z,9.30
2018-09-24T00:06:03.833Z,9.30
2018-09-24T00:08:31.003Z,9.30
2018-09-24T00:10:58.149Z,9.20
2018-09-24T00:13:25.254Z,9.20
2018-09-24T00:15:52.368Z,9.20
2018-09-24T00:18:19.539Z,9.00
2018-09-24T00:20:46.653Z,9.00
2018-09-24T00:23:13.766Z,9.00
2018-09-24T00:25:40.946Z,9.00
2018-09-24T00:28:08.120Z,8.90
2018-09-24T00:30:35.293Z,8.70
2018-09-24T00:33:02.417Z,8.70
2018-09-24T00:35:29.662Z,8.80
2018-09-24T00:37:56.848Z,8.70
2018-09-24T00:40:24.065Z,8.70
2018-09-24T00:42:51.243Z,8.80
2018-09-24T00:45:18.376Z,8.90
2018-09-24T00:47:45.494Z,9.10
2018-09-24T00:50:12.653Z,9.20
2018-09-24T00:52:39.790Z,9.20
2018-09-24T00:55:06.974Z,9.00
2018-09-24T00:57:34.107Z,8.90
2018-09-24T01:00:01.383Z,8.90
2018-09-24T01:02:28.593Z,8.90
2018-09-24T01:04:55.729Z,8.70
2018-09-24T01:07:22.873Z,8.70
2018-09-24T01:09:49.994Z,8.70
2018-09-24T01:12:17.119Z,8.60
2018-09-24T01:14:44.247Z,8.50
2018-09-24T01:17:11.397Z,8.40
2018-09-24T01:19:38.533Z,8.30
2018-09-24T01:22:05.695Z,8.40
2018-09-24T01:24:32.908Z,8.50
2018-09-24T01:27:00.061Z,8.30
2018-09-24T01:29:27.183Z,8.20
2018-09-24T01:31:54.302Z,8.20
2018-09-24T01:34:21.442Z,8.30
2018-09-24T01:36:48.573Z,8.30
2018-09-24T01:39:15.690Z,8.30
2018-09-24T01:41:42.823Z,8.30
2018-09-24T01:44:10.129Z,8.20
2018-09-24T01:46:37.306Z,8.10
2018-09-24T01:49:04.489Z,8.20
2018-09-24T01:51:33.851Z,8.00
2018-09-24T01:54:01.055Z,8.10
2018-09-24T01:56:28.188Z,8.20
2018-09-24T01:58:55.306Z,8.20
2018-09-24T02:01:22.421Z,8.20
2018-09-24T02:03:49.534Z,8.20
2018-09-24T02:06:16.646Z,8.00
2018-09-24T02:08:44.214Z,7.90
2018-09-24T02:11:11.491Z,7.80
2018-09-24T02:13:44.886Z,7.60
2018-09-24T02:16:12.012Z,7.50
2018-09-24T02:18:39.129Z,7.40
2018-09-24T02:21:06.286Z,7.50
2018-09-24T02:23:33.441Z,7.80
2018-09-24T02:26:00.619Z,7.90
2018-09-24T02:28:28.223Z,8.00
2018-09-24T02:30:55.418Z,8.00
2018-09-24T02:33:22.579Z,8.10
2018-09-24T02:35:49.701Z,7.90
2018-09-24T02:38:17.543Z,7.70
2018-09-24T02:40:44.676Z,7.70
2018-09-24T02:43:11.783Z,7.60
2018-09-24T02:45:38.905Z,7.60
2018-09-24T02:48:06.399Z,7.70
2018-09-24T02:50:35.852Z,7.60
2018-09-24T02:53:03.059Z,7.70
2018-09-24T02:55:30.246Z,7.50
2018-09-24T02:57:58.119Z,7.50
2018-09-24T03:00:25.242Z,7.70
2018-09-24T03:02:52.411Z,7.70
2018-09-24T03:05:19.531Z,7.50
2018-09-24T03:07:46.695Z,7.50
2018-09-24T03:10:13.866Z,7.50
2018-09-24T03:12:47.912Z,7.40
2018-09-24T03:15:15.074Z,7.40
2018-09-24T03:17:42.220Z,7.30
2018-09-24T03:20:09.496Z,7.30
2018-09-24T03:22:36.594Z,7.30
2018-09-24T03:25:03.786Z,7.20
2018-09-24T03:27:31.027Z,7.20
2018-09-24T03:29:58.281Z,7.20
2018-09-24T03:32:25.399Z,7.10
2018-09-24T03:34:52.503Z,7.20
2018-09-24T03:37:19.635Z,7.20
2018-09-24T03:39:46.748Z,7.10
2018-09-24T03:42:13.865Z,7.10
2018-09-24T03:44:41.015Z,7.10
2018-09-24T03:47:08.158Z,7.10
2018-09-24T03:49:35.290Z,7.00
2018-09-24T03:52:02.568Z,7.10
2018-09-24T03:54:29.802Z,7.10
2018-09-24T03:56:57.071Z,7.10
2018-09-24T03:59:24.215Z,7.10
2018-09-24T04:01:51.366Z,7.10
2018-09-24T04:04:24.257Z,7.20
2018-09-24T04:06:57.300Z,7.10
2018-09-24T04:09:30.292Z,7.00
2018-09-24T04:12:03.142Z,7.00
2018-09-24T04:14:36.881Z,6.90
2018-09-24T04:17:09.841Z,6.90
2018-09-24T04:19:42.598Z,6.90
2018-09-24T04:22:15.424Z,6.90
2018-09-24T04:24:48.423Z,6.80
2018-09-24T04:27:21.185Z,6.80
2018-09-24T04:29:54.073Z,6.90
2018-09-24T04:32:26.959Z,6.90
2018-09-24T04:35:00.071Z,6.80
2018-09-24T04:37:33.114Z,6.70
2018-09-24T04:40:06.092Z,6.70
2018-09-24T04:42:38.979Z,6.70
2018-09-24T04:45:12.033Z,6.60
2018-09-24T04:47:44.795Z,6.60
2018-09-24T04:50:17.778Z,6.50
2018-09-24T04:52:50.626Z,6.50
2018-09-24T04:55:23.479Z,6.50
2018-09-24T04:57:56.314Z,6.50
2018-09-24T05:00:29.386Z,6.50
2018-09-24T05:03:02.188Z,6.50
2018-09-24T05:05:35.235Z,6.40
2018-09-24T05:08:08.226Z,6.30
2018-09-24T05:10:41.012Z,6.40
2018-09-24T05:13:13.991Z,6.50
2018-09-24T05:15:46.717Z,6.50
2018-09-24T05:18:19.415Z,6.50
2018-09-24T05:20:52.400Z,6.50
2018-09-24T05:23:25.406Z,6.60
2018-09-24T05:25:58.261Z,6.70
2018-09-24T05:28:31.104Z,6.70
2018-09-24T05:31:04.153Z,6.70
2018-09-24T05:33:37.059Z,6.70
2018-09-24T05:36:10.039Z,6.80
2018-09-24T05:38:42.907Z,6.90
2018-09-24T05:41:15.853Z,7.00
2018-09-24T05:43:48.780Z,7.30
2018-09-24T05:46:21.477Z,7.60
2018-09-24T05:48:54.264Z,7.80
2018-09-24T05:51:27.225Z,7.80
2018-09-24T05:54:00.048Z,7.80
2018-09-24T05:56:32.986Z,7.80
2018-09-24T05:59:06.083Z,7.90
2018-09-24T06:01:39.134Z,8.00
2018-09-24T06:04:12.049Z,8.30
2018-09-24T06:06:45.115Z,9.20
2018-09-24T06:09:18.145Z,9.70
2018-09-24T06:11:50.957Z,10.00
2018-09-24T06:14:23.742Z,9.70
2018-09-24T06:16:56.541Z,9.40
2018-09-24T06:19:29.491Z,9.30
2018-09-24T06:22:02.414Z,10.30
2018-09-24T06:24:35.252Z,12.20
2018-09-24T06:27:08.341Z,14.40
2018-09-24T06:29:41.424Z,16.20
2018-09-24T06:32:14.409Z,16.80
2018-09-24T06:34:47.271Z,17.50
2018-09-24T06:37:20.059Z,17.30
2018-09-24T06:39:52.926Z,16.40
2018-09-24T06:42:25.899Z,14.30
2018-09-24T06:44:58.844Z,13.20
2018-09-24T06:47:31.709Z,12.80
2018-09-24T06:50:05.006Z,13.10
2018-09-24T06:52:37.838Z,15.50
2018-09-24T06:55:10.766Z,17.80
2018-09-24T06:57:43.630Z,19.00
2018-09-24T07:00:16.587Z,18.50
2018-09-24T07:02:49.470Z,18.80
2018-09-24T07:05:22.374Z,20.40
2018-09-24T07:07:55.218Z,20.30
2018-09-24T07:10:28.236Z,20.70
2018-09-24T07:13:01.272Z,21.50
2018-09-24T07:15:34.282Z,21.70
2018-09-24T07:18:07.171Z,20.50
2018-09-24T07:20:39.916Z,21.30
2018-09-24T07:23:12.900Z,21.90
2018-09-24T07:25:45.946Z,22.10
2018-09-24T07:28:18.764Z,22.40
2018-09-24T07:30:51.572Z,20.60
2018-09-24T07:33:24.566Z,20.90
2018-09-24T07:35:57.658Z,21.00
2018-09-24T07:38:30.511Z,21.60
2018-09-24T07:41:03.419Z,22.80
2018-09-24T07:43:36.658Z,22.10
2018-09-24T07:46:09.631Z,22.50
2018-09-24T07:48:42.707Z,21.70
2018-09-24T07:51:15.627Z,20.90
2018-09-24T07:53:48.606Z,22.10
2018-09-24T07:56:21.504Z,21.10
2018-09-24T07:58:54.370Z,22.00
2018-09-24T08:01:27.376Z,21.70
2018-09-24T08:04:00.520Z,19.90
2018-09-24T08:06:33.321Z,21.30
2018-09-24T08:09:06.336Z,21.90
2018-09-24T08:11:39.307Z,23.00
2018-09-24T08:14:12.153Z,22.90
2018-09-24T08:16:45.082Z,22.50
2018-09-24T08:19:18.178Z,22.90
2018-09-24T08:21:50.900Z,22.60
2018-09-24T08:24:24.658Z,22.40
2018-09-24T08:26:57.551Z,21.50
2018-09-24T08:29:30.466Z,21.40
2018-09-24T08:32:03.271Z,21.70
2018-09-24T08:34:36.258Z,21.80
2018-09-24T08:37:09.114Z,21.90
2018-09-24T08:39:42.359Z,21.40
2018-09-24T08:42:15.214Z,20.40
2018-09-24T08:44:48.068Z,19.90
2018-09-24T08:47:20.903Z,19.00
2018-09-24T08:49:53.989Z,19.00
2018-09-24T08:52:26.847Z,17.10
2018-09-24T08:54:59.704Z,16.10
2018-09-24T08:57:32.576Z,15.50
2018-09-24T09:00:05.705Z,16.20
2018-09-24T09:02:38.670Z,16.70
2018-09-24T09:05:11.687Z,17.10
2018-09-24T09:07:44.367Z,17.00
2018-09-24T09:10:17.151Z,16.80
2018-09-24T09:12:50.030Z,16.20
2018-09-24T09:15:23.031Z,15.80
2018-09-24T09:17:55.867Z,15.40
2018-09-24T09:20:28.710Z,15.70
2018-09-24T09:23:01.834Z,16.10
2018-09-24T09:25:34.820Z,16.10
2018-09-24T09:28:07.839Z,15.90
2018-09-24T09:30:41.012Z,15.80
2018-09-24T09:33:13.910Z,15.50
2018-09-24T09:35:46.754Z,15.30
2018-09-24T09:38:19.912Z,15.10
2018-09-24T09:40:52.797Z,14.80
2018-09-24T09:43:25.690Z,14.70
2018-09-24T09:45:58.734Z,14.10
2018-09-24T09:48:31.602Z,14.40
2018-09-24T09:51:04.624Z,14.70
2018-09-24T09:53:37.430Z,14.40
2018-09-24T09:56:10.279Z,14.00
2018-09-24T09:58:43.462Z,14.10
2018-09-24T10:01:16.231Z,14.80
2018-09-24T10:03:49.080Z,14.90
2018-09-24T10:06:21.903Z,15.40
2018-09-24T10:08:54.815Z,15.80
2018-09-24T10:11:27.959Z,15.20
2018-09-24T10:14:00.732Z,14.90
2018-09-24T10:16:33.670Z,15.00
2018-09-24T10:19:06.740Z,14.50
2018-09-24T10:21:39.643Z,14.60
2018-09-24T10:24:12.470Z,14.80
2018-09-24T10:26:45.518Z,14.90
2018-09-24T10:29:18.404Z,14.90
2018-09-24T10:31:51.447Z,14.50
2018-09-24T10:34:24.265Z,14.50
2018-09-24T10:36:57.108Z,14.80
2018-09-24T10:39:30.131Z,15.20
2018-09-24T10:42:03.222Z,15.70
2018-09-24T10:44:36.138Z,16.00
2018-09-24T10:47:09.192Z,16.30
2018-09-24T10:49:42.102Z,16.20
2018-09-24T10:52:15.146Z,15.90
2018-09-24T10:54:48.078Z,15.60
2018-09-24T10:57:21.156Z,15.30
2018-09-24T10:59:54.160Z,14.70
2018-09-24T11:02:27.169Z,14.40
2018-09-24T11:04:59.994Z,14.20
2018-09-24T11:07:32.810Z,14.00
2018-09-24T11:10:05.644Z,14.10
2018-09-24T11:12:38.639Z,14.00
2018-09-24T11:15:11.562Z,14.20
2018-09-24T11:17:44.667Z,14.40
2018-09-24T11:20:17.274Z,14.40
2018-09-24T11:22:50.214Z,14.70
2018-09-24T11:25:22.983Z,14.80
2018-09-24T11:27:55.863Z,15.10
2018-09-24T11:30:28.907Z,14.90
2018-09-24T11:33:01.684Z,14.90
2018-09-24T11:35:34.531Z,15.10
2018-09-24T11:38:07.653Z,15.30
2018-09-24T11:40:40.486Z,15.60
2018-09-24T11:43:13.397Z,16.00
2018-09-24T11:45:46.433Z,16.10
2018-09-24T11:48:19.382Z,15.90
2018-09-24T11:50:52.416Z,15.30
2018-09-24T11:53:25.310Z,15.10
2018-09-24T11:55:58.221Z,15.00
2018-09-24T11:58:31.177Z,15.40
2018-09-24T12:01:04.086Z,15.60
2018-09-24T12:03:36.842Z,16.00
2018-09-24T12:06:09.790Z,16.30
2018-09-24T12:08:42.887Z,16.10
2018-09-24T12:11:15.775Z,15.80
2018-09-24T12:13:48.598Z,15.70
2018-09-24T12:16:21.569Z,15.80
2018-09-24T12:18:54.407Z,16.00
2018-09-24T12:21:27.267Z,16.30
2018-09-24T12:24:00.324Z,16.50
2018-09-24T12:26:33.166Z,16.70
2018-09-24T12:29:06.277Z,16.60
2018-09-24T12:31:39.303Z,16.60
2018-09-24T12:34:12.099Z,16.80
2018-09-24T12:36:45.034Z,16.70
2018-09-24T12:39:18.114Z,16.50
2018-09-24T12:41:50.991Z,16.50
2018-09-24T12:44:23.948Z,16.90
2018-09-24T12:46:56.795Z,16.60
2018-09-24T12:49:29.715Z,16.80
2018-09-24T12:52:02.720Z,16.70
2018-09-24T12:54:35.981Z,16.70
2018-09-24T12:57:08.862Z,16.60
2018-09-24T12:59:41.989Z,16.80
2018-09-24T13:02:14.938Z,16.80
2018-09-24T13:04:48.016Z,16.60
2018-09-24T13:07:20.986Z,16.50
2018-09-24T13:09:53.796Z,16.50
2018-09-24T13:12:26.710Z,16.20
2018-09-24T13:14:59.606Z,16.00
2018-09-24T13:17:32.502Z,15.70
2018-09-24T13:20:05.371Z,15.60
2018-09-24T13:22:38.166Z,15.40
2018-09-24T13:25:11.158Z,15.30
2018-09-24T13:27:44.059Z,15.30
2018-09-24T13:30:16.819Z,15.10
2018-09-24T13:32:49.751Z,14.90
2018-09-24T13:35:22.678Z,14.70
2018-09-24T13:37:55.575Z,14.60
2018-09-24T13:40:28.414Z,14.40
2018-09-24T13:43:01.368Z,14.30
2018-09-24T13:45:34.197Z,14.30
2018-09-24T13:48:07.026Z,14.50
2018-09-24T13:50:40.026Z,14.60
2018-09-24T13:53:12.795Z,14.80
2018-09-24T13:55:45.805Z,14.80
2018-09-24T13:58:18.576Z,14.90
2018-09-24T14:00:51.517Z,15.20
2018-09-24T14:03:24.296Z,15.40
2018-09-24T14:05:57.760Z,15.80
2018-09-24T14:08:30.590Z,16.10
2018-09-24T14:11:03.634Z,16.30
2018-09-24T14:13:36.542Z,16.40
2018-09-24T14:16:09.585Z,16.40
2018-09-24T14:18:42.608Z,16.50
2018-09-24T14:21:15.712Z,16.40
2018-09-24T14:23:48.437Z,16.30
2018-09-24T14:26:21.238Z,15.60
2018-09-24T14:28:53.919Z,15.40
2018-09-24T14:31:26.800Z,14.60
2018-09-24T14:33:59.792Z,13.70
2018-09-24T14:36:32.635Z,13.50
2018-09-24T14:39:05.552Z,13.30
2018-09-24T14:41:38.644Z,13.20
2018-09-24T14:44:12.006Z,13.00
2018-09-24T14:46:44.918Z,12.80
2018-09-24T14:49:17.867Z,12.70
2018-09-24T14:51:50.795Z,12.60
2018-09-24T14:54:23.580Z,12.50
2018-09-24T14:56:56.538Z,12.50
2018-09-24T14:59:29.578Z,12.40
2018-09-24T15:02:02.636Z,12.40
2018-09-24T15:04:35.531Z,12.30
2018-09-24T15:07:08.610Z,12.30
2018-09-24T15:09:41.533Z,12.20
2018-09-24T15:12:14.573Z,12.30
2018-09-24T15:14:47.596Z,12.20
2018-09-24T15:17:20.602Z,12.20
2018-09-24T15:19:53.355Z,12.10
2018-09-24T15:22:26.319Z,12.10
2018-09-24T15:24:59.254Z,12.10
2018-09-24T15:27:32.163Z,12.10
2018-09-24T15:30:05.230Z,12.20
2018-09-24T15:32:38.294Z,12.30
2018-09-24T15:35:11.059Z,12.40
2018-09-24T15:37:43.778Z,12.50
2018-09-24T15:40:16.855Z,12.70
2018-09-24T15:42:49.660Z,12.80
2018-09-24T15:45:22.382Z,12.90
2018-09-24T15:47:55.401Z,13.00
2018-09-24T15:50:28.248Z,13.10
2018-09-24T15:53:01.036Z,13.30
2018-09-24T15:55:33.926Z,13.50
2018-09-24T15:58:07.227Z,13.60
2018-09-24T16:00:40.115Z,13.70
2018-09-24T16:03:12.867Z,13.80
2018-09-24T16:05:45.839Z,13.70
2018-09-24T16:08:18.676Z,13.70
2018-09-24T16:10:51.587Z,13.70
2018-09-24T16:13:24.382Z,13.70
2018-09-24T16:15:57.279Z,13.60
2018-09-24T16:18:30.265Z,13.50
2018-09-24T16:21:03.149Z,13.50
2018-09-24T16:23:36.243Z,13.50
2018-09-24T16:26:09.069Z,13.50
2018-09-24T16:28:41.987Z,13.50
2018-09-24T16:31:14.861Z,13.50
2018-09-24T16:33:47.825Z,13.50
2018-09-24T16:36:20.790Z,13.40
2018-09-24T16:38:53.531Z,13.10
2018-09-24T16:41:26.449Z,12.80
2018-09-24T16:43:59.327Z,12.60
2018-09-24T16:46:32.199Z,12.30
2018-09-24T16:49:05.194Z,12.30
2018-09-24T16:51:38.229Z,12.20
2018-09-24T16:54:11.159Z,12.20
2018-09-24T16:56:43.951Z,12.00
2018-09-24T16:59:17.017Z,11.90
2018-09-24T17:01:50.003Z,11.70
2018-09-24T17:04:22.940Z,11.60
2018-09-24T17:06:55.940Z,11.50
2018-09-24T17:09:28.780Z,11.40
2018-09-24T17:12:01.766Z,11.20
2018-09-24T17:14:34.662Z,11.00
2018-09-24T17:17:07.729Z,11.00
2018-09-24T17:19:40.679Z,11.00
2018-09-24T17:22:13.553Z,10.90
2018-09-24T17:24:46.594Z,10.90
2018-09-24T17:27:19.482Z,10.80
2018-09-24T17:29:52.422Z,10.80
2018-09-24T17:32:25.293Z,10.70
2018-09-24T17:34:58.354Z,10.80
2018-09-24T17:37:31.216Z,10.80
2018-09-24T17:40:04.218Z,10.60
2018-09-24T17:42:37.099Z,10.50
2018-09-24T17:45:10.067Z,10.20
2018-09-24T17:47:42.819Z,10.20
2018-09-24T17:50:15.726Z,10.10
2018-09-24T17:52:48.651Z,10.10
2018-09-24T17:55:21.494Z,10.10
2018-09-24T17:57:54.166Z,10.00
2018-09-24T18:00:27.090Z,9.90
2018-09-24T18:02:59.927Z,9.90
2018-09-24T18:05:32.955Z,9.80
2018-09-24T18:08:05.738Z,9.80
2018-09-24T18:10:38.546Z,10.00
2018-09-24T18:13:11.350Z,10.00
2018-09-24T18:15:44.470Z,9.90
2018-09-24T18:18:17.381Z,9.80
2018-09-24T18:20:50.219Z,9.80
2018-09-24T18:23:23.018Z,9.80
2018-09-24T18:25:55.966Z,9.70
2018-09-24T18:28:28.551Z,9.60
2018-09-24T18:31:01.395Z,9.60
2018-09-24T18:33:34.407Z,9.60
2018-09-24T18:36:07.455Z,9.70
2018-09-24T18:38:40.328Z,9.70
2018-09-24T18:41:13.213Z,9.70
2018-09-24T18:43:45.971Z,9.70
2018-09-24T18:46:18.947Z,9.70
2018-09-24T18:48:51.747Z,9.70
2018-09-24T18:51:24.541Z,9.60
2018-09-24T18:53:57.519Z,9.60
2018-09-24T18:56:30.498Z,9.70
2018-09-24T18:59:03.270Z,9.70
2018-09-24T19:01:36.312Z,9.70
2018-09-24T19:04:09.405Z,9.80
2018-09-24T19:06:42.372Z,9.80
2018-09-24T19:09:15.235Z,9.70
2018-09-24T19:11:48.365Z,9.70
2018-09-24T19:14:21.280Z,9.80
2018-09-24T19:16:54.030Z,9.70
2018-09-24T19:19:26.891Z,9.60
2018-09-24T19:21:59.670Z,9.60
2018-09-24T19:24:32.754Z,9.60
2018-09-24T19:27:05.813Z,9.50
2018-09-24T19:29:38.653Z,9.40
2018-09-24T19:32:11.719Z,9.40
2018-09-24T19:34:44.620Z,9.30
2018-09-24T19:37:17.673Z,9.20
2018-09-24T19:39:50.658Z,9.10
2018-09-24T19:42:23.674Z,8.90
2018-09-24T19:44:56.654Z,8.90
2018-09-24T19:47:29.646Z,9.00
2018-09-24T19:50:02.794Z,9.10
2018-09-24T19:52:35.812Z,9.00
2018-09-24T19:55:08.879Z,9.00
2018-09-24T19:57:42.295Z,8.80
2018-09-24T20:00:15.304Z,8.60
2018-09-24T20:02:48.614Z,8.60
2018-09-24T20:05:21.525Z,8.50
2018-09-24T20:07:54.397Z,8.50
2018-09-24T20:10:27.359Z,8.40
2018-09-24T20:13:00.553Z,8.30
2018-09-24T20:15:33.482Z,8.20
2018-09-24T20:18:06.319Z,8.30
2018-09-24T20:20:39.138Z,8.50
2018-09-24T20:23:11.990Z,8.50
2018-09-24T20:25:45.043Z,8.50
2018-09-24T20:28:18.272Z,8.60
2018-09-24T20:30:51.308Z,8.70
2018-09-24T20:33:24.334Z,8.70
2018-09-24T20:35:57.170Z,8.60
2018-09-24T20:38:30.280Z,8.50
2018-09-24T20:41:03.196Z,8.40
2018-09-24T20:43:36.202Z,8.40
2018-09-24T20:46:09.135Z,8.30
2018-09-24T20:48:41.983Z,8.40
2018-09-24T20:51:14.874Z,8.30
2018-09-24T20:53:47.654Z,8.30
2018-09-24T20:56:20.643Z,8.20
2018-09-24T20:58:53.668Z,8.10
2018-09-24T21:01:26.442Z,8.10
2018-09-24T21:03:59.325Z,8.00
2018-09-24T21:06:32.290Z,8.10
2018-09-24T21:09:05.331Z,7.90
2018-09-24T21:11:38.495Z,7.90
2018-09-24T21:14:11.374Z,7.80
2018-09-24T21:16:44.129Z,7.80
2018-09-24T21:19:17.140Z,7.90
2018-09-24T21:21:49.975Z,8.00
2018-09-24T21:24:22.995Z,8.00
2018-09-24T21:26:55.998Z,8.20
2018-09-24T21:29:28.749Z,8.20
2018-09-24T21:32:01.628Z,8.00
2018-09-24T21:34:34.710Z,8.00
2018-09-24T21:37:07.634Z,8.00
2018-09-24T21:39:41.884Z,7.90
2018-09-24T21:42:14.806Z,7.80
2018-09-24T21:44:47.629Z,7.80
2018-09-24T21:47:20.463Z,7.70
2018-09-24T21:49:53.485Z,7.60
2018-09-24T21:52:26.293Z,7.60
2018-09-24T21:54:59.291Z,7.60
2018-09-24T21:57:32.203Z,7.60
2018-09-24T22:00:05.129Z,7.60
2018-09-24T22:02:38.122Z,7.80
2018-09-24T22:05:11.003Z,7.70
2018-09-24T22:07:43.806Z,7.50
2018-09-24T22:10:16.685Z,7.50
2018-09-24T22:12:49.542Z,7.40
2018-09-24T22:15:22.502Z,7.60
2018-09-24T22:17:55.379Z,7.80
2018-09-24T22:20:28.462Z,7.70
2018-09-24T22:23:01.457Z,7.70
2018-09-24T22:25:34.452Z,7.70
2018-09-24T22:28:07.551Z,7.60
2018-09-24T22:30:40.667Z,7.60
2018-09-24T22:33:13.428Z,7.60
2018-09-24T22:35:46.486Z,7.50
2018-09-24T22:38:19.373Z,7.60
2018-09-24T22:40:52.149Z,7.60
2018-09-24T22:43:25.155Z,7.50
2018-09-24T22:45:58.194Z,7.40
2018-09-24T22:48:30.983Z,7.40
2018-09-24T22:51:03.912Z,7.30
2018-09-24T22:53:36.875Z,7.30
2018-09-24T22:56:09.863Z,7.20
2018-09-24T22:58:42.883Z,7.30
2018-09-24T23:01:15.789Z,7.20
2018-09-24T23:03:52.070Z,7.30
2018-09-24T23:06:24.955Z,7.40
2018-09-24T23:08:57.707Z,7.30
2018-09-24T23:11:30.644Z,7.50
2018-09-24T23:14:03.647Z,7.50
2018-09-24T23:16:36.611Z,7.60
2018-09-24T23:19:09.545Z,7.80
2018-09-24T23:21:42.543Z,7.90
2018-09-24T23:24:15.518Z,7.90
2018-09-24T23:26:48.370Z,8.00
2018-09-24T23:29:21.189Z,8.00
2018-09-24T23:31:54.011Z,8.00
2018-09-24T23:34:27.277Z,8.00
2018-09-24T23:37:00.248Z,7.80
2018-09-24T23:39:32.970Z,7.90
2018-09-24T23:42:05.915Z,7.80
2018-09-24T23:44:38.731Z,7.60
2018-09-24T23:47:11.842Z,7.40
2018-09-24T23:49:44.734Z,7.20
2018-09-24T23:52:17.546Z,7.10
2018-09-24T23:54:50.382Z,6.90
2018-09-24T23:57:23.406Z,6.90
